createdAt,value
2022-08-26T00:01:05.258Z,8.00
2022-08-26T00:03:52.132Z,8.45
2022-08-26T00:06:37.658Z,7.97
2022-08-26T00:09:27.808Z,8.55
2022-08-26T00:12:13.800Z,8.40
2022-08-26T00:14:59.115Z,7.85
2022-08-26T00:17:46.217Z,7.95
2022-08-26T00:20:34.111Z,8.23
2022-08-26T00:23:24.262Z,8.35
2022-08-26T00:26:09.735Z,8.50
2022-08-26T00:28:56.486Z,8.45
2022-08-26T00:31:42.127Z,8.00
2022-08-26T00:34:27.622Z,8.23
2022-08-26T00:37:16.148Z,8.88
2022-08-26T00:40:05.339Z,8.30
2022-08-26T00:42:50.598Z,8.50
2022-08-26T00:45:46.883Z,8.27
2022-08-26T00:48:33.844Z,8.43
2022-08-26T00:51:23.762Z,8.60
2022-08-26T00:54:11.086Z,9.03
2022-08-26T00:57:02.435Z,8.35
2022-08-26T00:59:54.309Z,7.97
2022-08-26T01:02:39.612Z,8.43
2022-08-26T01:05:32.602Z,8.43
2022-08-26T01:08:17.807Z,8.40
2022-08-26T01:11:04.723Z,8.18
2022-08-26T01:13:54.700Z,8.60
2022-08-26T01:16:42.268Z,8.10
2022-08-26T01:19:36.147Z,8.43
2022-08-26T01:22:28.678Z,7.87
2022-08-26T01:25:14.491Z,8.25
2022-08-26T01:28:05.742Z,7.55
2022-08-26T01:30:53.373Z,7.85
2022-08-26T01:34:16.612Z,7.97
2022-08-26T01:37:07.461Z,7.50
2022-08-26T01:39:57.425Z,8.10
2022-08-26T01:42:42.810Z,8.05
2022-08-26T01:45:30.666Z,8.30
2022-08-26T01:48:20.083Z,8.38
2022-08-26T01:51:07.698Z,8.10
2022-08-26T01:53:53.093Z,8.60
2022-08-26T01:56:39.302Z,8.50
2022-08-26T01:59:25.738Z,8.48
2022-08-26T02:02:10.611Z,8.35
2022-08-26T02:05:03.240Z,8.30
2022-08-26T02:07:50.685Z,8.05
2022-08-26T02:10:37.226Z,8.52
2022-08-26T02:13:26.417Z,8.35
2022-08-26T02:16:12.779Z,8.00
2022-08-26T02:18:59.573Z,8.50
2022-08-26T02:21:51.068Z,8.05
2022-08-26T02:24:53.713Z,8.13
2022-08-26T02:27:39.659Z,8.18
2022-08-26T02:30:28.084Z,8.40
2022-08-26T02:33:13.637Z,8.00
2022-08-26T02:35:58.552Z,8.15
2022-08-26T02:38:43.621Z,8.20
2022-08-26T02:41:31.788Z,8.00
2022-08-26T02:44:18.746Z,8.70
2022-08-26T02:47:04.133Z,7.97
2022-08-26T02:49:50.216Z,8.20
2022-08-26T02:52:35.550Z,8.15
2022-08-26T02:55:22.025Z,9.20
2022-08-26T02:58:11.205Z,7.70
2022-08-26T03:00:56.870Z,8.10
2022-08-26T03:03:42.312Z,8.35
2022-08-26T03:06:28.442Z,8.10
2022-08-26T03:09:14.003Z,8.40
2022-08-26T03:12:04.487Z,8.02
2022-08-26T03:14:50.147Z,8.03
2022-08-26T03:17:35.515Z,7.93
2022-08-26T03:20:21.069Z,7.88
2022-08-26T03:23:06.556Z,7.68
2022-08-26T03:25:53.095Z,8.32
2022-08-26T03:29:02.160Z,8.10
2022-08-26T03:31:47.642Z,8.25
2022-08-26T03:34:32.936Z,7.78
2022-08-26T03:37:18.428Z,8.38
2022-08-26T03:40:04.356Z,8.52
2022-08-26T03:42:50.843Z,8.53
2022-08-26T03:45:36.921Z,7.95
2022-08-26T03:48:22.401Z,8.63
2022-08-26T03:51:18.461Z,8.48
2022-08-26T03:54:05.625Z,8.63
2022-08-26T03:56:53.911Z,8.57
2022-08-26T03:59:38.799Z,8.40
2022-08-26T04:02:27.359Z,8.45
2022-08-26T04:05:14.465Z,8.60
2022-08-26T04:07:59.785Z,8.30
2022-08-26T04:10:44.959Z,8.13
2022-08-26T04:13:31.111Z,8.32
2022-08-26T04:16:17.525Z,8.30
2022-08-26T04:19:03.042Z,8.15
2022-08-26T04:21:50.987Z,8.80
2022-08-26T04:24:36.297Z,8.37
2022-08-26T04:27:21.712Z,8.65
2022-08-26T04:30:07.161Z,8.55
2022-08-26T04:32:53.808Z,9.30
2022-08-26T04:35:39.231Z,8.95
2022-08-26T04:38:29.159Z,8.50
2022-08-26T04:41:15.614Z,8.48
2022-08-26T04:44:02.634Z,8.50
2022-08-26T04:46:48.173Z,9.27
2022-08-26T04:49:35.184Z,8.35
2022-08-26T04:52:21.313Z,9.07
2022-08-26T04:55:08.567Z,8.10
2022-08-26T04:57:53.993Z,8.23
2022-08-26T05:00:39.326Z,8.40
2022-08-26T05:03:26.085Z,8.65
2022-08-26T05:06:12.250Z,8.40
2022-08-26T05:08:57.476Z,8.52
2022-08-26T05:11:43.505Z,8.77
2022-08-26T05:14:28.988Z,8.20
2022-08-26T05:17:15.047Z,8.10
2022-08-26T05:20:00.559Z,8.50
2022-08-26T05:22:45.961Z,8.32
2022-08-26T05:25:31.579Z,9.00
2022-08-26T05:28:18.724Z,8.02
2022-08-26T05:31:16.064Z,8.32
2022-08-26T05:34:04.585Z,8.20
2022-08-26T05:36:50.486Z,7.80
2022-08-26T05:39:35.491Z,8.10
2022-08-26T05:42:21.438Z,7.78
2022-08-26T05:45:06.828Z,8.00
2022-08-26T05:47:51.985Z,8.30
2022-08-26T05:50:38.906Z,8.13
2022-08-26T05:53:26.093Z,8.45
2022-08-26T05:56:12.231Z,8.18
2022-08-26T05:58:58.336Z,7.45
2022-08-26T06:01:43.981Z,8.77
2022-08-26T06:04:29.877Z,8.02
2022-08-26T06:07:16.860Z,8.07
2022-08-26T06:10:30.560Z,8.07
2022-08-26T06:13:11.821Z,7.60
2022-08-26T06:15:59.267Z,8.00
2022-08-26T06:18:47.698Z,8.27
2022-08-26T06:21:35.355Z,8.00
2022-08-26T06:24:40.131Z,7.80
2022-08-26T06:27:28.321Z,7.82
2022-08-26T06:30:17.613Z,8.17
2022-08-26T06:33:04.257Z,8.27
2022-08-26T06:35:51.023Z,8.05
2022-08-26T06:38:36.482Z,7.85
2022-08-26T06:41:23.426Z,8.68
2022-08-26T06:44:08.491Z,6.90
2022-08-26T06:46:53.635Z,7.15
2022-08-26T06:49:39.838Z,7.47
2022-08-26T06:52:25.300Z,7.55
2022-08-26T06:55:10.757Z,8.10
2022-08-26T06:57:57.321Z,7.93
2022-08-26T07:00:47.243Z,7.95
2022-08-26T07:03:32.974Z,7.60
2022-08-26T07:06:26.082Z,8.02
2022-08-26T07:09:11.243Z,7.22
2022-08-26T07:11:57.024Z,7.37
2022-08-26T07:14:43.744Z,7.43
2022-08-26T07:17:32.739Z,7.82
2022-08-26T07:20:19.157Z,7.05
2022-08-26T07:23:04.887Z,7.65
2022-08-26T07:25:55.396Z,6.90
2022-08-26T07:28:40.965Z,7.28
2022-08-26T07:31:29.696Z,7.40
2022-08-26T07:34:17.187Z,7.40
2022-08-26T07:37:04.858Z,7.07
2022-08-26T07:39:53.913Z,6.80
2022-08-26T07:42:39.971Z,7.05
2022-08-26T07:45:25.635Z,7.45
2022-08-26T07:48:11.363Z,7.20
2022-08-26T07:50:56.723Z,6.63
2022-08-26T07:53:44.284Z,7.47
2022-08-26T07:56:33.214Z,6.40
2022-08-26T07:59:19.151Z,6.22
2022-08-26T08:02:05.103Z,6.28
2022-08-26T08:04:51.647Z,6.40
2022-08-26T08:07:45.040Z,6.60
2022-08-26T08:10:31.300Z,6.13
2022-08-26T08:13:17.091Z,6.22
2022-08-26T08:16:05.071Z,6.40
2022-08-26T08:18:50.046Z,6.13
2022-08-26T08:21:35.523Z,6.77
2022-08-26T08:24:20.451Z,6.45
2022-08-26T08:27:06.094Z,6.70
2022-08-26T08:29:54.960Z,6.70
2022-08-26T08:32:41.173Z,6.50
2022-08-26T08:35:26.603Z,6.70
2022-08-26T08:38:11.761Z,6.28
2022-08-26T08:40:57.508Z,6.40
2022-08-26T08:43:44.821Z,6.65
2022-08-26T08:46:30.317Z,6.85
2022-08-26T08:49:17.513Z,6.20
2022-08-26T08:52:27.785Z,6.13
2022-08-26T08:55:18.054Z,6.30
2022-08-26T08:58:08.248Z,6.55
2022-08-26T09:01:04.724Z,6.50
2022-08-26T09:04:13.008Z,5.90
2022-08-26T09:07:06.884Z,5.95
2022-08-26T09:10:00.832Z,6.50
2022-08-26T09:12:48.056Z,6.38
2022-08-26T09:15:47.931Z,6.05
2022-08-26T09:19:11.663Z,5.60
2022-08-26T09:21:59.103Z,5.88
2022-08-26T09:24:48.491Z,5.93
2022-08-26T09:27:42.042Z,5.80
2022-08-26T09:30:33.059Z,5.60
2022-08-26T09:33:18.926Z,5.90
2022-08-26T09:36:22.984Z,5.75
2022-08-26T09:39:28.358Z,6.32
2022-08-26T09:42:23.216Z,6.00
2022-08-26T09:45:10.459Z,5.55
2022-08-26T09:47:57.306Z,6.10
2022-08-26T09:50:52.971Z,5.53
2022-08-26T09:53:51.607Z,5.97
2022-08-26T09:56:38.653Z,5.57
2022-08-26T09:59:30.784Z,6.25
2022-08-26T10:02:38.030Z,5.47
2022-08-26T10:05:31.699Z,5.82
2022-08-26T10:08:37.261Z,5.70
2022-08-26T10:11:31.503Z,5.70
2022-08-26T10:14:33.441Z,5.50
2022-08-26T10:17:39.101Z,5.60
2022-08-26T10:20:27.364Z,5.78
2022-08-26T10:23:18.610Z,5.70
2022-08-26T10:26:26.601Z,5.65
2022-08-26T10:29:19.948Z,5.28
2022-08-26T10:32:14.161Z,4.83
2022-08-26T10:34:59.344Z,5.65
2022-08-26T10:37:48.306Z,5.30
2022-08-26T10:40:56.226Z,5.40
2022-08-26T10:43:51.063Z,5.10
2022-08-26T10:46:49.362Z,5.20
2022-08-26T10:49:37.850Z,5.38
2022-08-26T10:52:52.017Z,4.95
2022-08-26T10:55:47.487Z,5.25
2022-08-26T10:58:39.067Z,5.45
2022-08-26T11:01:51.167Z,5.30
2022-08-26T11:05:02.002Z,5.57
2022-08-26T11:07:52.574Z,5.18
2022-08-26T11:10:43.069Z,5.30
2022-08-26T11:13:56.780Z,5.07
2022-08-26T11:16:54.217Z,5.27
2022-08-26T11:19:59.666Z,4.90
2022-08-26T11:22:48.021Z,5.10
2022-08-26T11:25:33.421Z,4.82
2022-08-26T11:28:32.261Z,5.15
2022-08-26T11:31:20.978Z,4.67
2022-08-26T11:34:12.565Z,4.95
2022-08-26T11:36:59.699Z,4.18
2022-08-26T11:39:56.961Z,4.80
2022-08-26T11:42:46.534Z,4.63
2022-08-26T11:45:31.668Z,4.47
2022-08-26T11:48:22.574Z,5.10
2022-08-26T11:51:21.266Z,4.78
2022-08-26T11:54:13.141Z,4.85
2022-08-26T11:56:59.294Z,5.00
2022-08-26T11:59:47.510Z,4.37
2022-08-26T12:02:33.615Z,4.70
2022-08-26T12:05:30.864Z,4.63
2022-08-26T12:08:27.989Z,4.72
2022-08-26T12:11:22.986Z,4.85
2022-08-26T12:14:17.358Z,4.70
2022-08-26T12:17:25.884Z,4.50
2022-08-26T12:20:45.731Z,4.95
2022-08-26T12:23:43.401Z,4.32
2022-08-26T12:26:32.853Z,4.60
2022-08-26T12:29:28.122Z,4.40
2022-08-26T12:32:17.716Z,4.35
2022-08-26T12:37:53.971Z,4.40
2022-08-26T12:40:43.778Z,4.65
2022-08-26T12:43:42.788Z,4.57
2022-08-26T12:46:29.108Z,4.43
2022-08-26T12:49:18.368Z,4.65
2022-08-26T12:52:06.355Z,4.82
2022-08-26T12:54:59.500Z,4.88
2022-08-26T12:57:45.532Z,4.37
2022-08-26T13:00:37.214Z,4.45
2022-08-26T13:03:44.898Z,4.70
2022-08-26T13:06:31.135Z,4.40
2022-08-26T13:09:16.441Z,4.50
2022-08-26T13:12:02.145Z,4.53
2022-08-26T13:14:47.417Z,4.50
2022-08-26T13:17:34.949Z,4.50
2022-08-26T13:20:20.362Z,4.40
2022-08-26T13:23:06.338Z,4.60
2022-08-26T13:25:52.133Z,4.33
2022-08-26T13:28:37.612Z,4.32
2022-08-26T13:31:26.967Z,4.30
2022-08-26T13:34:18.038Z,4.63
2022-08-26T13:37:03.402Z,4.35
2022-08-26T13:39:50.925Z,4.57
2022-08-26T13:42:36.436Z,4.20
2022-08-26T13:45:21.676Z,4.60
2022-08-26T13:48:08.150Z,4.53
2022-08-26T13:50:53.827Z,5.25
2022-08-26T13:53:39.169Z,4.27
2022-08-26T13:56:29.595Z,4.50
2022-08-26T13:59:15.024Z,5.60
2022-08-26T14:02:01.785Z,4.95
2022-08-26T14:04:47.237Z,4.53
2022-08-26T14:07:33.333Z,5.00
2022-08-26T14:10:19.200Z,5.28
2022-08-26T14:13:07.538Z,5.95
2022-08-26T14:15:53.645Z,4.82
2022-08-26T14:18:42.536Z,5.43
2022-08-26T14:21:31.384Z,4.50
2022-08-26T14:24:16.726Z,4.55
2022-08-26T14:27:02.293Z,4.13
2022-08-26T14:29:48.125Z,4.05
2022-08-26T14:32:34.357Z,4.60
2022-08-26T14:35:25.212Z,4.37
2022-08-26T14:38:10.804Z,4.30
2022-08-26T14:40:56.085Z,4.43
2022-08-26T14:43:48.408Z,4.28
2022-08-26T14:46:45.758Z,4.30
2022-08-26T14:49:31.729Z,4.50
2022-08-26T14:52:17.919Z,4.82
2022-08-26T14:55:02.976Z,3.90
2022-08-26T14:57:48.390Z,4.47
2022-08-26T15:00:33.512Z,4.38
2022-08-26T15:06:04.169Z,4.05
2022-08-26T15:08:49.604Z,4.13
2022-08-26T15:11:35.102Z,4.53
2022-08-26T15:14:21.639Z,4.40
2022-08-26T15:17:07.046Z,4.67
2022-08-26T15:19:52.653Z,4.20
2022-08-26T15:22:39.760Z,4.20
2022-08-26T15:25:24.920Z,4.20
2022-08-26T15:28:10.495Z,4.38
2022-08-26T15:30:55.734Z,4.50
2022-08-26T15:33:41.149Z,4.25
2022-08-26T15:36:28.872Z,4.10
2022-08-26T15:39:15.951Z,4.15
2022-08-26T15:42:01.897Z,4.63
2022-08-26T15:44:47.027Z,4.13
2022-08-26T15:47:32.440Z,3.70
2022-08-26T15:50:25.529Z,3.88
2022-08-26T15:53:10.796Z,4.00
2022-08-26T15:55:57.367Z,4.10
2022-08-26T15:58:42.846Z,3.80
2022-08-26T16:01:30.383Z,3.72
2022-08-26T16:04:16.148Z,3.72
2022-08-26T16:07:01.448Z,3.53
2022-08-26T16:09:48.974Z,3.75
2022-08-26T16:12:39.604Z,3.73
2022-08-26T16:15:25.009Z,3.60
2022-08-26T16:18:10.561Z,3.90
2022-08-26T16:21:12.758Z,3.90
2022-08-26T16:23:59.238Z,3.63
2022-08-26T16:26:45.199Z,4.00
2022-08-26T16:29:32.498Z,4.00
2022-08-26T16:32:17.540Z,3.80
2022-08-26T16:35:02.870Z,4.45
2022-08-26T16:37:48.301Z,3.90
2022-08-26T16:40:34.271Z,4.20
2022-08-26T16:43:19.630Z,4.45
2022-08-26T16:46:08.342Z,4.90
2022-08-26T16:48:56.037Z,4.80
2022-08-26T16:51:41.258Z,5.30
2022-08-26T16:54:26.729Z,5.13
2022-08-26T16:57:13.039Z,5.03
2022-08-26T16:59:58.544Z,5.38
2022-08-26T17:02:45.598Z,5.20
2022-08-26T17:05:30.937Z,5.38
2022-08-26T17:08:27.531Z,5.70
2022-08-26T17:11:14.568Z,5.35
2022-08-26T17:14:00.110Z,5.10
2022-08-26T17:16:45.706Z,5.10
2022-08-26T17:19:39.085Z,4.93
2022-08-26T17:22:30.508Z,5.00
2022-08-26T17:25:21.122Z,5.18
2022-08-26T17:28:08.404Z,5.00
2022-08-26T17:30:59.764Z,4.88
2022-08-26T17:33:47.725Z,4.82
2022-08-26T17:36:35.625Z,5.10
2022-08-26T17:39:20.854Z,5.00
2022-08-26T17:42:06.543Z,4.78
2022-08-26T17:44:51.595Z,4.75
2022-08-26T17:47:37.366Z,5.00
2022-08-26T17:50:23.959Z,4.80
2022-08-26T17:53:12.628Z,5.20
2022-08-26T17:56:09.926Z,4.82
2022-08-26T17:58:57.825Z,5.57
2022-08-26T18:01:47.794Z,4.95
2022-08-26T18:04:33.147Z,5.23
2022-08-26T18:07:18.330Z,5.07
2022-08-26T18:10:05.140Z,5.72
2022-08-26T18:12:50.839Z,5.80
2022-08-26T18:15:39.442Z,5.80
2022-08-26T18:18:24.706Z,5.77
2022-08-26T18:21:15.855Z,5.50
2022-08-26T18:24:00.947Z,5.53
2022-08-26T18:26:49.446Z,5.22
2022-08-26T18:29:34.436Z,5.20
2022-08-26T18:32:19.734Z,5.33
2022-08-26T18:35:05.472Z,6.25
2022-08-26T18:37:51.018Z,6.10
2022-08-26T18:40:44.266Z,6.13
2022-08-26T18:43:29.386Z,6.22
2022-08-26T18:46:14.276Z,5.67
2022-08-26T18:48:59.666Z,5.57
2022-08-26T18:51:45.401Z,5.13
2022-08-26T18:54:30.942Z,5.55
2022-08-26T18:57:16.035Z,5.30
2022-08-26T19:00:01.934Z,5.30
2022-08-26T19:02:52.037Z,5.20
2022-08-26T19:05:41.054Z,4.90
2022-08-26T19:08:26.206Z,4.82
2022-08-26T19:11:11.523Z,4.80
2022-08-26T19:14:00.018Z,4.93
2022-08-26T19:16:48.443Z,4.72
2022-08-26T19:19:33.785Z,5.20
2022-08-26T19:22:19.801Z,4.85
2022-08-26T19:25:05.393Z,5.13
2022-08-26T19:27:50.653Z,5.00
2022-08-26T19:30:41.063Z,4.80
2022-08-26T19:33:27.105Z,5.18
2022-08-26T19:36:15.596Z,5.30
2022-08-26T19:39:04.183Z,4.93
2022-08-26T19:41:52.132Z,4.83
2022-08-26T19:44:55.902Z,4.63
2022-08-26T19:47:41.139Z,5.00
2022-08-26T19:50:29.555Z,5.05
2022-08-26T19:53:15.343Z,4.85
2022-08-26T19:56:00.473Z,5.23
2022-08-26T19:58:46.714Z,4.72
2022-08-26T20:01:31.911Z,4.75
2022-08-26T20:04:17.325Z,4.75
2022-08-26T20:07:03.260Z,4.65
2022-08-26T20:09:48.851Z,4.80
2022-08-26T20:12:35.619Z,4.90
2022-08-26T20:15:21.925Z,5.30
2022-08-26T20:18:27.773Z,5.20
2022-08-26T20:21:28.035Z,7.05
2022-08-26T20:24:16.504Z,4.67
2022-08-26T20:27:07.313Z,4.57
2022-08-26T20:29:57.193Z,5.22
2022-08-26T20:32:43.456Z,4.93
2022-08-26T20:35:28.858Z,4.90
2022-08-26T20:38:14.672Z,4.80
2022-08-26T20:41:01.242Z,4.45
2022-08-26T20:43:47.136Z,5.07
2022-08-26T20:46:34.605Z,5.03
2022-08-26T20:49:20.069Z,5.28
2022-08-26T20:52:05.361Z,4.93
2022-08-26T20:54:50.631Z,5.60
2022-08-26T20:57:35.934Z,5.43
2022-08-26T21:00:23.008Z,5.00
2022-08-26T21:03:13.416Z,5.60
2022-08-26T21:05:58.919Z,5.33
2022-08-26T21:08:44.492Z,5.82
2022-08-26T21:11:30.725Z,5.28
2022-08-26T21:14:17.018Z,4.93
2022-08-26T21:17:03.105Z,5.80
2022-08-26T21:19:48.778Z,5.67
2022-08-26T21:22:34.052Z,5.80
2022-08-26T21:25:19.565Z,6.90
2022-08-26T21:28:05.755Z,6.22
2022-08-26T21:30:50.849Z,5.88
2022-08-26T21:33:37.225Z,6.00
2022-08-26T21:36:22.401Z,6.30
2022-08-26T21:39:11.510Z,6.00
2022-08-26T21:41:57.909Z,6.07
2022-08-26T21:44:45.083Z,6.22
2022-08-26T21:47:38.351Z,5.90
2022-08-26T21:50:23.652Z,5.90
2022-08-26T21:53:10.245Z,5.68
2022-08-26T21:55:55.527Z,5.78
2022-08-26T21:58:41.518Z,6.47
2022-08-26T22:01:32.456Z,6.73
2022-08-26T22:04:18.412Z,7.57
2022-08-26T22:07:03.611Z,6.53
2022-08-26T22:09:49.242Z,5.80
2022-08-26T22:12:34.645Z,6.20
2022-08-26T22:15:22.978Z,6.50
2022-08-26T22:18:09.510Z,6.00
2022-08-26T22:21:00.796Z,6.70
2022-08-26T22:23:46.355Z,5.93
2022-08-26T22:26:33.127Z,5.68
2022-08-26T22:29:18.868Z,6.40
2022-08-26T22:32:04.656Z,6.78
2022-08-26T22:34:50.277Z,6.65
2022-08-26T22:37:35.564Z,7.13
2022-08-26T22:40:20.855Z,6.55
2022-08-26T22:43:06.331Z,6.80
2022-08-26T22:45:53.155Z,6.70
2022-08-26T22:48:38.728Z,6.80
2022-08-26T22:51:24.089Z,7.05
2022-08-26T22:54:09.294Z,7.65
2022-08-26T22:56:54.508Z,7.53
2022-08-26T22:59:40.520Z,7.40
2022-08-26T23:02:27.686Z,7.85
2022-08-26T23:05:13.137Z,7.40
2022-08-26T23:07:58.900Z,7.80
2022-08-26T23:10:46.632Z,8.27
2022-08-26T23:13:31.749Z,8.30
2022-08-26T23:16:16.607Z,8.48
2022-08-26T23:19:02.561Z,8.55
2022-08-26T23:21:49.491Z,9.18
2022-08-26T23:24:34.605Z,9.20
2022-08-26T23:27:19.844Z,8.57
2022-08-26T23:30:06.918Z,8.40
2022-08-26T23:32:52.425Z,8.77
2022-08-26T23:35:37.504Z,8.25
2022-08-26T23:38:24.862Z,8.90
2022-08-26T23:41:09.882Z,8.40
2022-08-26T23:43:55.318Z,8.32
2022-08-26T23:46:40.879Z,8.50
2022-08-26T23:49:26.685Z,8.23
2022-08-26T23:52:30.676Z,7.90
2022-08-26T23:55:16.161Z,7.60
2022-08-26T23:58:01.730Z,7.57
